Patetown, North Carolina
Current Conditions -  °F | °C
As of 9:15 AM on Thursday 18 Dec 2014 (Local Time) from KGWW Reporting Station
Clear Clear  
Wind Chill: 34°   Ceiling: Unl
Heat Index: 39°   Visibility: 10mi
Dew Point: 31°   Wind: 7mph
Humidity: 73%   Direction: 40°NE
Pressure: 30.2"   Gusts: NA
Location:  35.4141°N, 78.0215°W
Report Text: KGWW 181415Z AUTO 04006KT 10SM CLR 04/00 A3020 RMK AO2 T00401004
Loading
Personal Weather Stations






























Interactive Weather Map New forecast layout! Learn more

10-Day Weather Forecast

Advertisements
Track Severe Weather on mobile